createdAt,value
2023-05-05T01:05:58.100Z,99548.08
2023-05-05T01:08:18.554Z,99551.11
2023-05-05T01:10:34.592Z,99547.65
2023-05-05T01:12:47.655Z,99547.03
2023-05-05T01:15:00.672Z,99547.41
2023-05-05T01:17:18.303Z,99546.79
2023-05-05T01:19:49.344Z,99549.21
2023-05-05T01:21:59.242Z,99547.77
2023-05-05T01:24:38.910Z,99551.16
2023-05-05T01:26:59.776Z,99551.77
2023-05-05T01:29:27.463Z,99549.24
2023-05-05T01:31:43.894Z,99549.95
2023-05-05T01:33:54.672Z,99557.65
2023-05-05T01:36:04.814Z,99554.80
2023-05-05T01:38:14.039Z,99555.69
2023-05-05T01:40:25.569Z,99553.66
2023-05-05T01:42:32.520Z,99548.84
2023-05-05T01:44:38.334Z,99547.08
2023-05-05T01:46:43.070Z,99544.77
2023-05-05T01:48:51.801Z,99546.60
2023-05-05T01:50:57.633Z,99548.92
2023-05-05T01:53:03.803Z,99546.06
2023-05-05T01:55:11.068Z,99545.39
2023-05-05T01:57:17.128Z,99545.42
2023-05-05T01:59:24.309Z,99547.46
2023-05-05T02:01:30.073Z,99540.69
2023-05-05T02:03:39.355Z,99544.83
2023-05-05T02:05:47.642Z,99538.95
2023-05-05T02:07:58.701Z,99537.02
2023-05-05T02:10:04.929Z,99537.42
2023-05-05T02:12:10.834Z,99535.60
2023-05-05T02:14:16.926Z,99531.38
2023-05-05T02:16:22.738Z,99533.14
2023-05-05T02:18:28.850Z,99527.90
2023-05-05T02:20:36.145Z,99520.59
2023-05-05T02:22:41.246Z,99520.67
2023-05-05T02:24:46.484Z,99519.68
2023-05-05T02:26:52.923Z,99523.08
2023-05-05T02:29:05.830Z,99523.26
2023-05-05T02:31:12.528Z,99523.14
2023-05-05T02:33:20.946Z,99528.13
2023-05-05T02:35:36.645Z,99527.46
2023-05-05T02:37:45.228Z,99525.68
2023-05-05T02:39:54.568Z,99521.41
2023-05-05T02:42:01.549Z,99518.38
2023-05-05T02:44:09.487Z,99519.58
2023-05-05T02:46:17.428Z,99519.16
2023-05-05T02:48:22.979Z,99520.23
2023-05-05T02:50:29.784Z,99522.52
2023-05-05T02:52:41.966Z,99521.78
2023-05-05T02:54:46.778Z,99522.81
2023-05-05T02:56:57.354Z,99522.27
2023-05-05T02:59:09.656Z,99527.20
2023-05-05T03:01:26.616Z,99523.71
2023-05-05T03:03:40.340Z,99525.77
2023-05-05T03:05:53.800Z,99523.64
2023-05-05T03:08:08.917Z,99520.77
2023-05-05T03:10:19.008Z,99525.39
2023-05-05T03:12:36.132Z,99526.53
2023-05-05T03:14:51.578Z,99530.66
2023-05-05T03:16:56.994Z,99529.66
2023-05-05T03:19:03.503Z,99527.15
2023-05-05T03:21:09.141Z,99530.70
2023-05-05T03:23:16.120Z,99528.99
2023-05-05T03:25:21.577Z,99527.23
2023-05-05T03:27:26.438Z,99527.77
2023-05-05T03:29:31.249Z,99527.30
2023-05-05T03:31:36.606Z,99529.99
2023-05-05T03:33:41.535Z,99534.66
2023-05-05T03:35:46.321Z,99535.42
2023-05-05T03:37:51.252Z,99536.67
2023-05-05T03:39:56.070Z,99537.56
2023-05-05T03:42:00.848Z,99534.81
2023-05-05T03:44:08.706Z,99529.42
2023-05-05T03:46:13.945Z,99525.48
2023-05-05T03:48:20.002Z,99523.80
2023-05-05T03:50:25.012Z,99529.24
2023-05-05T03:52:29.866Z,99532.88
2023-05-05T03:54:34.602Z,99533.73
2023-05-05T03:56:39.409Z,99538.28
2023-05-05T03:58:44.111Z,99541.42
2023-05-05T04:00:48.933Z,99539.17
2023-05-05T04:02:55.030Z,99544.41
2023-05-05T04:05:01.296Z,99544.09
2023-05-05T04:07:06.142Z,99547.77
2023-05-05T04:09:11.250Z,99546.00
2023-05-05T04:11:16.169Z,99549.27
2023-05-05T04:13:20.877Z,99544.29
2023-05-05T04:15:26.523Z,99546.22
2023-05-05T04:17:31.494Z,99547.66
2023-05-05T04:19:36.764Z,99548.29
2023-05-05T04:21:41.951Z,99555.08
2023-05-05T04:23:46.990Z,99557.30
2023-05-05T04:25:51.745Z,99556.39
2023-05-05T04:27:56.652Z,99555.03
2023-05-05T04:30:01.765Z,99558.17
2023-05-05T04:32:08.771Z,99558.89
2023-05-05T04:34:13.661Z,99558.77
2023-05-05T04:36:18.590Z,99558.09
2023-05-05T04:38:23.577Z,99557.05
2023-05-05T04:40:28.495Z,99559.14
2023-05-05T04:42:33.915Z,99562.60
2023-05-05T04:44:39.371Z,99561.23
2023-05-05T04:46:44.386Z,99567.04
2023-05-05T04:48:49.200Z,99575.13
2023-05-05T04:50:53.946Z,99577.70
2023-05-05T04:52:58.924Z,99579.91
2023-05-05T04:55:03.805Z,99584.98
2023-05-05T04:57:08.506Z,99585.31
2023-05-05T04:59:13.780Z,99590.90
2023-05-05T05:01:18.861Z,99596.69
2023-05-05T05:03:23.880Z,99597.28
2023-05-05T05:05:29.818Z,99600.04
2023-05-05T05:07:34.987Z,99600.88
2023-05-05T05:09:40.030Z,99597.88
2023-05-05T05:11:44.861Z,99597.90
2023-05-05T05:13:49.553Z,99600.86
2023-05-05T05:15:54.394Z,99604.20
2023-05-05T05:17:59.227Z,99609.43
2023-05-05T05:20:04.430Z,99613.05
2023-05-05T05:22:09.333Z,99607.61
2023-05-05T05:24:16.115Z,99610.35
2023-05-05T05:26:21.562Z,99606.84
2023-05-05T05:28:27.722Z,99607.96
2023-05-05T05:30:35.259Z,99605.95
2023-05-05T05:32:40.886Z,99607.08
2023-05-05T05:34:45.730Z,99607.08
2023-05-05T05:36:50.508Z,99608.33
2023-05-05T05:38:55.400Z,99611.48
2023-05-05T05:40:59.990Z,99614.90
2023-05-05T05:43:05.380Z,99613.52
2023-05-05T05:45:11.712Z,99617.84
2023-05-05T05:47:16.548Z,99621.02
2023-05-05T05:49:21.219Z,99621.05
2023-05-05T05:51:26.242Z,99622.29
2023-05-05T05:53:30.941Z,99625.20
2023-05-05T05:55:35.790Z,99621.37
2023-05-05T05:57:40.653Z,99616.26
2023-05-05T05:59:46.281Z,99607.19
2023-05-05T06:01:51.126Z,99605.93
2023-05-05T06:03:57.734Z,99606.14
2023-05-05T06:06:02.680Z,99606.45
2023-05-05T06:08:07.963Z,99608.45
2023-05-05T06:10:26.454Z,99616.64
2023-05-05T06:12:33.479Z,99614.84
2023-05-05T06:14:38.711Z,99621.73
2023-05-05T06:16:43.467Z,99620.20
2023-05-05T06:18:50.598Z,99621.90
2023-05-05T06:20:55.420Z,99622.39
2023-05-05T06:23:03.353Z,99622.50
2023-05-05T06:25:10.960Z,99617.55
2023-05-05T06:27:16.559Z,99618.55
2023-05-05T06:29:21.345Z,99619.33
2023-05-05T06:31:26.207Z,99616.17
2023-05-05T06:33:30.988Z,99613.65
2023-05-05T06:35:36.035Z,99610.25
2023-05-05T06:37:40.640Z,99608.86
2023-05-05T06:39:45.632Z,99607.77
2023-05-05T06:41:50.607Z,99610.83
2023-05-05T06:43:55.335Z,99609.77
2023-05-05T06:46:00.158Z,99613.65
2023-05-05T06:48:04.964Z,99611.89
2023-05-05T06:50:11.064Z,99613.30
2023-05-05T06:52:16.194Z,99622.16
2023-05-05T06:54:20.938Z,99621.16
2023-05-05T06:56:26.992Z,99626.59
2023-05-05T06:58:31.695Z,99627.69
2023-05-05T07:00:39.647Z,99624.96
2023-05-05T07:02:44.571Z,99623.32
2023-05-05T07:04:49.604Z,99622.52
2023-05-05T07:06:54.566Z,99623.17
2023-05-05T07:08:59.753Z,99620.83
2023-05-05T07:11:05.225Z,99620.02
2023-05-05T07:13:10.135Z,99623.77
2023-05-05T07:15:26.847Z,99628.63
2023-05-05T07:17:33.352Z,99631.31
2023-05-05T07:19:38.254Z,99631.36
2023-05-05T07:21:43.065Z,99626.14
2023-05-05T07:23:48.020Z,99625.04
2023-05-05T07:25:52.909Z,99619.95
2023-05-05T07:27:58.234Z,99620.36
2023-05-05T07:30:06.547Z,99619.06
2023-05-05T07:32:14.051Z,99615.59
2023-05-05T07:34:19.000Z,99615.68
2023-05-05T07:36:23.828Z,99610.63
2023-05-05T07:38:28.830Z,99603.34
2023-05-05T07:40:33.630Z,99599.48
2023-05-05T07:42:38.579Z,99605.47
2023-05-05T07:44:43.506Z,99603.85
2023-05-05T07:46:48.221Z,99607.58
2023-05-05T07:48:53.114Z,99605.71
2023-05-05T07:51:01.104Z,99602.98
2023-05-05T07:53:14.527Z,99603.27
2023-05-05T07:55:20.145Z,99603.33
2023-05-05T07:57:25.614Z,99607.25
2023-05-05T07:59:30.326Z,99610.27
2023-05-05T08:01:35.186Z,99610.93
2023-05-05T08:03:40.143Z,99609.60
2023-05-05T08:05:45.124Z,99607.84
2023-05-05T08:07:49.829Z,99607.38
2023-05-05T08:09:54.593Z,99606.28
2023-05-05T08:11:59.376Z,99606.98
2023-05-05T08:14:04.508Z,99604.15
2023-05-05T08:16:09.961Z,99604.91
2023-05-05T08:18:14.996Z,99602.75
2023-05-05T08:20:20.876Z,99601.06
2023-05-05T08:22:25.702Z,99598.83
2023-05-05T08:24:30.620Z,99599.20
2023-05-05T08:26:35.584Z,99593.96
2023-05-05T08:28:40.696Z,99591.73
2023-05-05T08:30:45.436Z,99589.65
2023-05-05T08:32:50.277Z,99589.05
2023-05-05T08:34:55.045Z,99586.23
2023-05-05T08:36:59.900Z,99585.30
2023-05-05T08:39:04.783Z,99590.77
2023-05-05T08:41:13.006Z,99590.26
2023-05-05T08:43:17.853Z,99591.02
2023-05-05T08:45:23.150Z,99590.40
2023-05-05T08:47:28.231Z,99589.58
2023-05-05T08:49:38.791Z,99590.55
2023-05-05T08:51:47.716Z,99588.01
2023-05-05T08:54:00.900Z,99590.21
2023-05-05T08:56:09.080Z,99590.16
2023-05-05T08:58:15.525Z,99590.42
2023-05-05T09:00:22.803Z,99590.19
2023-05-05T09:02:29.508Z,99590.26
2023-05-05T09:04:37.705Z,99589.20
2023-05-05T09:06:42.824Z,99585.34
2023-05-05T09:08:47.933Z,99583.05
2023-05-05T09:10:54.758Z,99581.98
2023-05-05T09:13:00.260Z,99578.38
2023-05-05T09:15:14.927Z,99577.84
2023-05-05T09:17:26.619Z,99578.52
2023-05-05T09:19:31.368Z,99572.27
2023-05-05T09:21:40.100Z,99568.81
2023-05-05T09:24:08.691Z,99566.05
2023-05-05T09:26:14.293Z,99568.32
2023-05-05T09:28:19.665Z,99563.92
2023-05-05T09:30:26.745Z,99568.06
2023-05-05T09:32:31.589Z,99572.27
2023-05-05T09:34:37.137Z,99577.50
2023-05-05T09:36:46.471Z,99580.86
2023-05-05T09:39:05.934Z,99578.04
2023-05-05T09:41:10.632Z,99579.55
2023-05-05T09:43:16.285Z,99573.33
2023-05-05T09:45:28.237Z,99568.48
2023-05-05T09:47:39.224Z,99569.20
2023-05-05T09:49:44.071Z,99571.73
2023-05-05T09:51:49.521Z,99567.35
2023-05-05T09:53:54.525Z,99568.44
2023-05-05T09:56:01.196Z,99567.52
2023-05-05T09:58:21.535Z,99563.41
2023-05-05T10:00:39.053Z,99556.11
2023-05-05T10:02:47.019Z,99559.08
2023-05-05T10:05:04.273Z,99560.25
2023-05-05T10:07:22.225Z,99555.07
2023-05-05T10:09:27.695Z,99555.77
2023-05-05T10:11:33.360Z,99556.52
2023-05-05T10:13:40.538Z,99558.23
2023-05-05T10:15:47.837Z,99557.70
2023-05-05T10:18:06.683Z,99556.80
2023-05-05T10:20:15.273Z,99555.71
2023-05-05T10:22:23.586Z,99554.14
2023-05-05T10:24:38.867Z,99552.99
2023-05-05T10:26:44.162Z,99550.23
2023-05-05T10:28:54.870Z,99542.95
2023-05-05T10:31:01.007Z,99540.59
2023-05-05T10:33:30.965Z,99540.45
2023-05-05T10:35:40.612Z,99542.00
2023-05-05T10:37:46.824Z,99538.99
2023-05-05T10:39:53.360Z,99534.50
2023-05-05T10:42:00.505Z,99533.52
2023-05-05T10:44:06.874Z,99527.63
2023-05-05T10:46:11.978Z,99522.91
2023-05-05T10:48:24.951Z,99518.64
2023-05-05T10:50:34.732Z,99515.61
2023-05-05T10:52:44.780Z,99515.31
2023-05-05T10:54:56.743Z,99512.40
2023-05-05T10:57:04.571Z,99510.21
2023-05-05T10:59:43.188Z,99505.23
2023-05-05T11:01:48.142Z,99500.13
2023-05-05T11:04:12.815Z,99496.71
2023-05-05T11:06:17.858Z,99495.17
2023-05-05T11:08:29.427Z,99492.30
2023-05-05T11:10:45.204Z,99490.43
2023-05-05T11:13:19.343Z,99495.35
2023-05-05T11:15:37.219Z,99491.44
2023-05-05T11:17:48.229Z,99488.41
2023-05-05T11:19:53.257Z,99483.67
2023-05-05T11:22:02.814Z,99480.50
2023-05-05T11:24:28.961Z,99484.17
2023-05-05T11:26:53.267Z,99480.33
2023-05-05T11:29:03.368Z,99477.41
2023-05-05T11:31:21.451Z,99474.67
2023-05-05T11:33:26.836Z,99467.33
2023-05-05T11:35:57.234Z,99465.88
2023-05-05T11:38:07.090Z,99460.30
2023-05-05T11:40:27.110Z,99460.98
2023-05-05T11:42:32.008Z,99457.17
2023-05-05T11:44:37.023Z,99454.31
2023-05-05T11:47:02.910Z,99446.34
2023-05-05T11:49:08.313Z,99444.54
2023-05-05T11:51:15.036Z,99447.95
2023-05-05T11:53:20.261Z,99450.76
2023-05-05T11:55:25.158Z,99449.81
2023-05-05T11:57:32.729Z,99448.93
2023-05-05T11:59:49.663Z,99445.95
2023-05-05T12:01:55.055Z,99449.88
2023-05-05T12:04:00.066Z,99445.23
2023-05-05T12:06:05.498Z,99443.23
2023-05-05T12:08:10.426Z,99442.77
2023-05-05T12:10:21.948Z,99442.02
2023-05-05T12:12:37.803Z,99441.89
2023-05-05T12:14:50.713Z,99434.86
2023-05-05T12:16:59.723Z,99435.35
2023-05-05T12:19:08.366Z,99432.82
2023-05-05T12:21:18.490Z,99435.46
2023-05-05T12:23:23.441Z,99431.91
2023-05-05T12:25:36.341Z,99428.31
2023-05-05T12:27:41.342Z,99426.52
2023-05-05T12:29:46.123Z,99427.98
2023-05-05T12:31:50.990Z,99425.66
2023-05-05T12:33:55.828Z,99422.18
2023-05-05T12:36:00.625Z,99420.59
2023-05-05T12:38:05.715Z,99422.00
2023-05-05T12:40:46.549Z,99415.80
2023-05-05T12:42:51.259Z,99418.19
2023-05-05T12:44:56.014Z,99414.34
2023-05-05T12:47:00.798Z,99415.34
2023-05-05T12:49:06.848Z,99412.73
2023-05-05T12:51:16.702Z,99403.55
2023-05-05T12:53:25.276Z,99399.94
2023-05-05T12:55:39.431Z,99399.70
2023-05-05T12:58:01.018Z,99395.36
2023-05-05T13:00:16.697Z,99391.07
2023-05-05T13:02:21.671Z,99387.95
2023-05-05T13:04:27.545Z,99385.02
2023-05-05T13:06:32.384Z,99386.06
2023-05-05T13:08:46.108Z,99382.97
2023-05-05T13:10:59.814Z,99373.79
2023-05-05T13:13:04.626Z,99370.02
2023-05-05T13:15:12.116Z,99368.23
2023-05-05T13:17:19.635Z,99369.27
2023-05-05T13:19:24.296Z,99365.27
2023-05-05T13:21:29.110Z,99364.07
2023-05-05T13:23:33.712Z,99355.41
2023-05-05T13:25:38.877Z,99351.30
2023-05-05T13:27:43.512Z,99352.13
2023-05-05T13:29:48.180Z,99347.52
2023-05-05T13:31:52.815Z,99352.08
2023-05-05T13:33:57.573Z,99342.26
2023-05-05T13:36:02.968Z,99344.35
2023-05-05T13:38:07.848Z,99338.04
2023-05-05T13:40:14.339Z,99335.70
2023-05-05T13:42:19.126Z,99335.23
2023-05-05T13:44:23.797Z,99331.22
2023-05-05T13:46:28.474Z,99319.98
2023-05-05T13:48:33.089Z,99317.52
2023-05-05T13:50:37.965Z,99312.30
2023-05-05T13:52:43.043Z,99309.02
2023-05-05T13:54:47.837Z,99304.00
2023-05-05T13:56:52.554Z,99303.55
2023-05-05T13:58:57.217Z,99303.03
2023-05-05T14:01:02.046Z,99298.95
2023-05-05T14:03:07.099Z,99299.27
2023-05-05T14:05:12.672Z,99296.21
2023-05-05T14:07:17.313Z,99289.45
2023-05-05T14:09:22.239Z,99290.48
2023-05-05T14:11:27.079Z,99290.17
2023-05-05T14:13:31.853Z,99290.56
2023-05-05T14:15:36.562Z,99288.38
2023-05-05T14:17:41.298Z,99284.96
2023-05-05T14:19:46.577Z,99284.57
2023-05-05T14:21:51.249Z,99279.88
2023-05-05T14:23:56.017Z,99279.34
2023-05-05T14:26:00.819Z,99277.42
2023-05-05T14:28:08.577Z,99276.29
2023-05-05T14:30:14.657Z,99274.43
2023-05-05T14:32:19.366Z,99267.64
2023-05-05T14:34:24.254Z,99268.61
2023-05-05T14:36:28.884Z,99264.39
2023-05-05T14:38:33.637Z,99267.98
2023-05-05T14:40:38.492Z,99266.27
2023-05-05T14:42:43.148Z,99263.55
2023-05-05T14:44:47.910Z,99262.01
2023-05-05T14:46:52.767Z,99260.41
2023-05-05T14:48:57.511Z,99263.94
2023-05-05T14:51:02.133Z,99265.55
2023-05-05T14:53:06.966Z,99264.81
2023-05-05T14:55:12.370Z,99265.16
2023-05-05T14:57:19.984Z,99263.41
2023-05-05T14:59:24.749Z,99260.31
2023-05-05T15:01:29.679Z,99259.80
2023-05-05T15:03:34.583Z,99259.54
2023-05-05T15:05:39.511Z,99262.25
2023-05-05T15:07:44.418Z,99261.10
2023-05-05T15:09:54.422Z,99256.57
2023-05-05T15:12:00.406Z,99259.59
2023-05-05T15:14:05.094Z,99252.11
2023-05-05T15:16:10.431Z,99260.95
2023-05-05T15:18:15.261Z,99255.17
2023-05-05T15:20:19.958Z,99257.23
2023-05-05T15:22:25.940Z,99254.02
2023-05-05T15:24:32.644Z,99256.24
2023-05-05T15:26:37.633Z,99259.55
2023-05-05T15:28:42.332Z,99258.48
2023-05-05T15:30:55.878Z,99263.20
2023-05-05T15:33:00.825Z,99263.19
2023-05-05T15:35:06.488Z,99261.46
2023-05-05T15:37:11.225Z,99262.55
2023-05-05T15:39:15.856Z,99260.02
2023-05-05T15:41:20.576Z,99264.23
2023-05-05T15:43:25.560Z,99263.78
2023-05-05T15:45:33.058Z,99256.48
2023-05-05T15:47:37.856Z,99259.89
2023-05-05T15:49:42.661Z,99259.35
2023-05-05T15:51:47.409Z,99254.23
2023-05-05T15:53:52.122Z,99254.28
2023-05-05T15:55:56.733Z,99254.68
2023-05-05T15:58:04.221Z,99254.88
2023-05-05T16:00:10.985Z,99250.84
2023-05-05T16:02:15.767Z,99253.75
2023-05-05T16:04:20.496Z,99252.22
2023-05-05T16:06:25.181Z,99252.34
2023-05-05T16:08:32.858Z,99246.39
2023-05-05T16:10:40.753Z,99244.21
2023-05-05T16:12:45.735Z,99246.31
2023-05-05T16:14:50.487Z,99247.48
2023-05-05T16:16:55.488Z,99244.91
2023-05-05T16:19:00.392Z,99243.23
2023-05-05T16:21:05.417Z,99246.04
2023-05-05T16:23:10.061Z,99242.59
2023-05-05T16:25:16.508Z,99237.63
2023-05-05T16:27:26.821Z,99239.80
2023-05-05T16:29:34.503Z,99236.15
2023-05-05T16:31:42.434Z,99234.74
2023-05-05T16:33:47.995Z,99237.39
2023-05-05T16:35:52.759Z,99233.04
2023-05-05T16:37:58.591Z,99232.64
2023-05-05T16:40:03.362Z,99228.59
2023-05-05T16:42:08.353Z,99225.39
2023-05-05T16:44:13.510Z,99227.50
2023-05-05T16:46:18.442Z,99223.91
2023-05-05T16:48:23.127Z,99223.95
2023-05-05T16:50:28.058Z,99222.05
2023-05-05T16:52:32.955Z,99218.17
2023-05-05T16:54:37.613Z,99214.18
2023-05-05T16:56:43.641Z,99214.36
2023-05-05T16:58:48.443Z,99214.58
2023-05-05T17:00:56.557Z,99214.11
2023-05-05T17:03:01.275Z,99214.52
2023-05-05T17:05:07.261Z,99214.70
2023-05-05T17:07:12.029Z,99212.65
2023-05-05T17:09:16.776Z,99211.96
2023-05-05T17:11:21.401Z,99210.65
2023-05-05T17:13:26.036Z,99210.22
2023-05-05T17:15:30.750Z,99207.10
2023-05-05T17:17:35.614Z,99211.70
2023-05-05T17:19:40.329Z,99212.98
2023-05-05T17:21:47.596Z,99214.05
2023-05-05T17:23:53.388Z,99212.01
2023-05-05T17:25:58.048Z,99209.59
2023-05-05T17:28:02.839Z,99209.52
2023-05-05T17:30:09.492Z,99210.66
2023-05-05T17:32:14.310Z,99213.26
2023-05-05T17:34:19.212Z,99215.31
2023-05-05T17:36:24.065Z,99212.59
2023-05-05T17:38:31.916Z,99211.17
2023-05-05T17:40:36.673Z,99214.00
2023-05-05T17:42:42.692Z,99211.90
2023-05-05T17:44:47.782Z,99210.29
2023-05-05T17:46:52.503Z,99213.73
2023-05-05T17:48:57.328Z,99218.11
2023-05-05T17:51:02.003Z,99220.06
2023-05-05T17:53:06.819Z,99220.89
2023-05-05T17:55:12.434Z,99221.36
2023-05-05T17:57:17.793Z,99226.19
2023-05-05T17:59:22.389Z,99225.11
2023-05-05T18:01:27.848Z,99222.88
2023-05-05T18:03:33.221Z,99222.23
2023-05-05T18:05:37.970Z,99223.35
2023-05-05T18:07:42.642Z,99224.53
2023-05-05T18:09:47.370Z,99221.76
2023-05-05T18:11:53.172Z,99224.45
2023-05-05T18:13:58.092Z,99229.61
2023-05-05T18:16:02.760Z,99230.63
2023-05-05T18:18:07.610Z,99230.72
2023-05-05T18:20:13.195Z,99235.69
2023-05-05T18:22:17.869Z,99235.90
2023-05-05T18:24:22.444Z,99240.62
2023-05-05T18:26:27.166Z,99239.16
2023-05-05T18:28:31.947Z,99246.17
2023-05-05T18:30:36.536Z,99247.11
2023-05-05T18:32:41.776Z,99247.55
2023-05-05T18:34:46.405Z,99247.07
2023-05-05T18:36:52.932Z,99250.39
2023-05-05T18:38:57.700Z,99254.73
2023-05-05T18:41:02.303Z,99257.61
2023-05-05T18:43:07.127Z,99259.41
2023-05-05T18:45:12.589Z,99258.38
2023-05-05T18:47:17.164Z,99261.69
2023-05-05T18:49:22.063Z,99262.05
2023-05-05T18:51:26.896Z,99259.58
2023-05-05T18:53:31.694Z,99259.80
2023-05-05T18:55:36.340Z,99260.83
2023-05-05T18:57:41.040Z,99257.84
2023-05-05T18:59:45.713Z,99261.02
2023-05-05T19:01:50.286Z,99264.70
2023-05-05T19:03:54.924Z,99265.77
2023-05-05T19:05:59.654Z,99261.96
2023-05-05T19:08:04.433Z,99260.27
2023-05-05T19:10:11.117Z,99266.39
2023-05-05T19:12:15.901Z,99265.52
2023-05-05T19:14:21.061Z,99265.55
2023-05-05T19:16:26.662Z,99263.17
2023-05-05T19:18:32.232Z,99265.48
2023-05-05T19:20:37.060Z,99263.29
2023-05-05T19:22:42.044Z,99263.54
2023-05-05T19:24:46.936Z,99266.61
2023-05-05T19:26:51.555Z,99264.15
2023-05-05T19:28:56.192Z,99266.01
2023-05-05T19:31:00.913Z,99261.71
2023-05-05T19:33:05.803Z,99257.32
2023-05-05T19:35:11.237Z,99257.20
2023-05-05T19:37:16.423Z,99254.84
2023-05-05T19:39:21.474Z,99257.65
2023-05-05T19:41:26.228Z,99255.38
2023-05-05T19:43:30.870Z,99253.02
2023-05-05T19:45:35.706Z,99255.82
2023-05-05T19:47:40.479Z,99252.23
2023-05-05T19:49:45.261Z,99253.36
2023-05-05T19:51:50.019Z,99257.59
2023-05-05T19:53:54.671Z,99255.08
2023-05-05T19:55:59.595Z,99254.63
2023-05-05T19:58:04.376Z,99250.34
2023-05-05T20:00:11.387Z,99249.66
2023-05-05T20:02:16.372Z,99247.01
2023-05-05T20:04:21.098Z,99246.21
2023-05-05T20:06:26.095Z,99243.29
2023-05-05T20:08:30.710Z,99239.10
2023-05-05T20:10:38.140Z,99236.28
2023-05-05T20:12:43.510Z,99234.10
2023-05-05T20:14:48.129Z,99234.46
2023-05-05T20:16:52.848Z,99236.50
2023-05-05T20:18:57.665Z,99234.66
2023-05-05T20:21:03.543Z,99236.73
2023-05-05T20:23:08.290Z,99231.63
2023-05-05T20:25:13.330Z,99228.73
2023-05-05T20:27:18.014Z,99223.80
2023-05-05T20:29:22.718Z,99225.08
2023-05-05T20:31:27.588Z,99221.11
2023-05-05T20:33:32.329Z,99217.71
2023-05-05T20:35:37.126Z,99215.05
2023-05-05T20:37:44.616Z,99210.75
2023-05-05T20:39:49.409Z,99209.71
2023-05-05T20:41:54.095Z,99211.35
2023-05-05T20:43:58.812Z,99208.23
2023-05-05T20:46:03.647Z,99211.58
2023-05-05T20:48:08.473Z,99212.13
2023-05-05T20:50:13.568Z,99209.63
2023-05-05T20:52:18.289Z,99208.80
2023-05-05T20:54:23.073Z,99210.11
2023-05-05T20:56:27.886Z,99215.00
2023-05-05T20:58:32.611Z,99216.35
2023-05-05T21:00:37.466Z,99214.50
2023-05-05T21:02:42.329Z,99217.78
2023-05-05T21:04:47.162Z,99213.41
2023-05-05T21:06:52.068Z,99216.04
2023-05-05T21:08:56.826Z,99217.38
2023-05-05T21:11:01.517Z,99214.09
2023-05-05T21:13:06.350Z,99215.64
2023-05-05T21:15:12.477Z,99211.36
2023-05-05T21:17:17.122Z,99210.17
2023-05-05T21:19:22.089Z,99206.21
2023-05-05T21:21:26.994Z,99203.69
2023-05-05T21:23:31.741Z,99205.18
2023-05-05T21:25:36.510Z,99206.02
2023-05-05T21:27:41.551Z,99211.17
2023-05-05T21:29:46.645Z,99208.01
2023-05-05T21:31:51.400Z,99203.81
2023-05-05T21:33:56.114Z,99204.90
2023-05-05T21:36:00.785Z,99199.47
2023-05-05T21:38:05.533Z,99200.28
2023-05-05T21:40:11.696Z,99197.95
2023-05-05T21:42:16.769Z,99198.40
2023-05-05T21:44:21.489Z,99194.89
2023-05-05T21:46:26.195Z,99193.26
2023-05-05T21:48:30.949Z,99190.36
2023-05-05T21:50:35.689Z,99191.67
2023-05-05T21:52:40.574Z,99194.77
2023-05-05T21:54:48.571Z,99194.41
2023-05-05T21:56:53.359Z,99194.44
2023-05-05T21:58:58.042Z,99196.04
2023-05-05T22:01:02.729Z,99198.27
2023-05-05T22:03:07.546Z,99199.73
2023-05-05T22:05:12.510Z,99201.53
2023-05-05T22:07:17.351Z,99200.83
2023-05-05T22:09:22.129Z,99198.21
2023-05-05T22:11:26.954Z,99199.77
2023-05-05T22:13:31.688Z,99202.10
2023-05-05T22:15:46.137Z,99206.26
2023-05-05T22:17:51.799Z,99203.87
2023-05-05T22:19:56.532Z,99205.72
2023-05-05T22:22:01.287Z,99198.31
2023-05-05T22:24:07.089Z,99198.85
2023-05-05T22:26:11.885Z,99198.73
2023-05-05T22:28:16.669Z,99198.16
2023-05-05T22:30:21.376Z,99195.86
2023-05-05T22:32:26.186Z,99192.09
2023-05-05T22:34:30.842Z,99184.53
2023-05-05T22:36:35.577Z,99180.81
2023-05-05T22:38:40.200Z,99171.56
2023-05-05T22:40:45.002Z,99167.30
2023-05-05T22:42:49.625Z,99165.89
2023-05-05T22:44:54.299Z,99168.58
2023-05-05T22:46:59.251Z,99167.37
2023-05-05T22:49:04.050Z,99172.36
2023-05-05T22:51:08.839Z,99169.02
2023-05-05T22:53:13.607Z,99168.73
2023-05-05T22:55:18.372Z,99170.77
2023-05-05T22:57:23.157Z,99170.65
2023-05-05T22:59:27.949Z,99173.17
2023-05-05T23:01:36.023Z,99175.02
2023-05-05T23:03:40.764Z,99175.70
2023-05-05T23:05:45.332Z,99177.44
2023-05-05T23:07:49.956Z,99171.54
2023-05-05T23:09:57.242Z,99171.08
2023-05-05T23:12:04.807Z,99168.73
2023-05-05T23:14:09.386Z,99167.20
2023-05-05T23:16:15.154Z,99168.93
2023-05-05T23:18:19.961Z,99164.86
2023-05-05T23:20:24.741Z,99164.75
2023-05-05T23:22:29.397Z,99160.21
2023-05-05T23:24:34.055Z,99156.80
2023-05-05T23:26:38.789Z,99152.52
2023-05-05T23:28:43.479Z,99153.52
2023-05-05T23:30:48.247Z,99154.27
2023-05-05T23:32:53.014Z,99155.53
2023-05-05T23:34:57.673Z,99152.07
2023-05-05T23:37:03.943Z,99148.52
2023-05-05T23:39:10.149Z,99143.61
2023-05-05T23:41:14.853Z,99139.13
2023-05-05T23:43:19.550Z,99139.23
2023-05-05T23:45:24.259Z,99137.39
2023-05-05T23:47:28.986Z,99136.25
2023-05-05T23:49:33.635Z,99135.02
2023-05-05T23:51:38.270Z,99131.08
2023-05-05T23:53:42.992Z,99124.85
2023-05-05T23:55:47.656Z,99127.16
2023-05-05T23:57:52.490Z,99126.05
2023-05-05T23:59:57.186Z,99123.27
